Time;durP1;ratioP1;P1;durP2;ratioP2;P2;SDS_P1;SDS_P2;PMS_P1;PMS_P2;Temp;Humidity;BMP_temperature;BMP_pressure;BME280_temperature;BME280_humidity;BME280_pressure;Samples;Min_cycle;Max_cycle;Signal;HPM_P1;HPM_P2
2023/10/31 00:00:30;;;;;;;0.30;0.30;;;21.20;55.20;;;;;;5067731;28;20443;-55
2023/10/31 00:02:56;;;;;;;0.60;0.40;;;21.20;54.40;;;;;;5069358;28;20047;-56
2023/10/31 00:05:21;;;;;;;0.60;0.30;;;21.20;54.30;;;;;;5072859;28;20439;-51
2023/10/31 00:07:47;;;;;;;0.60;0.20;;;21.20;54.30;;;;;;5070269;28;20025;-55
2023/10/31 00:10:13;;;;;;;0.40;0.30;;;21.20;54.20;;;;;;5068787;28;20020;-55
2023/10/31 00:12:39;;;;;;;0.20;0.20;;;21.20;54.10;;;;;;5070673;28;20340;-57
2023/10/31 00:15:05;;;;;;;0.82;0.43;;;21.20;54.00;;;;;;5071663;28;20373;-55
2023/10/31 00:17:31;;;;;;;0.70;0.30;;;21.10;53.90;;;;;;5069826;28;20032;-57
2023/10/31 00:19:57;;;;;;;0.40;0.40;;;21.20;53.80;;;;;;5064653;28;20030;-56
2023/10/31 00:22:24;;;;;;;0.40;0.30;;;21.10;53.70;;;;;;5068466;28;20324;-57
2023/10/31 00:24:49;;;;;;;0.60;0.40;;;21.10;53.60;;;;;;5067804;28;20025;-51
2023/10/31 00:27:15;;;;;;;0.73;0.30;;;21.10;53.60;;;;;;5075614;28;20400;-57
2023/10/31 00:29:41;;;;;;;0.57;0.40;;;21.10;53.50;;;;;;5067520;28;20471;-52
2023/10/31 00:32:07;;;;;;;0.20;0.20;;;21.10;53.40;;;;;;5054782;28;20126;-56
2023/10/31 00:34:33;;;;;;;0.50;0.30;;;21.10;53.40;;;;;;5035837;28;20182;-53
2023/10/31 00:36:59;;;;;;;1.63;0.47;;;21.10;53.40;;;;;;5070540;28;20738;-57
2023/10/31 00:39:25;;;;;;;0.35;0.30;;;21.10;53.30;;;;;;5045080;28;20462;-56
2023/10/31 00:41:51;;;;;;;0.45;0.30;;;21.10;53.30;;;;;;5049235;28;20360;-58
2023/10/31 00:44:16;;;;;;;0.20;0.20;;;21.10;53.20;;;;;;5065864;28;20120;-58
2023/10/31 00:46:43;;;;;;;0.35;0.30;;;21.10;53.20;;;;;;5070200;28;20033;-57
2023/10/31 00:49:09;;;;;;;0.45;0.30;;;21.10;53.10;;;;;;5072937;28;20024;-56
2023/10/31 00:51:35;;;;;;;0.20;0.20;;;21.10;53.10;;;;;;5055415;28;20663;-56
2023/10/31 00:54:01;;;;;;;0.57;0.30;;;21.10;53.10;;;;;;5076875;28;20043;-57
2023/10/31 00:56:27;;;;;;;0.80;0.40;;;21.10;53.10;;;;;;5070137;28;20040;-54
2023/10/31 00:58:53;;;;;;;0.57;0.30;;;21.10;53.10;;;;;;5072085;28;20048;-58
2023/10/31 01:01:19;;;;;;;0.20;0.20;;;21.00;53.00;;;;;;5064154;28;20033;-55
2023/10/31 01:03:45;;;;;;;0.28;0.20;;;21.10;53.00;;;;;;5068340;28;20167;-59
2023/10/31 01:06:11;;;;;;;0.90;0.30;;;21.10;52.90;;;;;;5067526;28;20028;-53
2023/10/31 01:08:36;;;;;;;0.63;0.28;;;21.10;52.90;;;;;;5072275;28;20040;-54
2023/10/31 01:11:03;;;;;;;0.52;0.30;;;21.10;52.90;;;;;;5065193;28;20109;-57
2023/10/31 01:13:29;;;;;;;0.28;0.28;;;21.00;52.80;;;;;;5072972;28;20083;-59
2023/10/31 01:15:55;;;;;;;0.88;0.30;;;21.00;52.80;;;;;;5067399;28;20024;-54
2023/10/31 01:18:20;;;;;;;0.55;0.30;;;21.00;52.70;;;;;;5076453;28;20020;-57
2023/10/31 01:20:47;;;;;;;2.38;0.50;;;21.00;52.70;;;;;;5055643;28;20024;-58
2023/10/31 01:23:13;;;;;;;0.45;0.30;;;21.00;52.70;;;;;;5057607;28;20036;-52
2023/10/31 01:25:38;;;;;;;0.85;0.40;;;21.00;52.70;;;;;;5069859;28;20036;-56
2023/10/31 01:28:04;;;;;;;1.00;0.43;;;21.00;52.70;;;;;;5065945;28;20397;-55
2023/10/31 01:30:30;;;;;;;0.50;0.32;;;21.00;52.60;;;;;;5068289;28;20116;-56
2023/10/31 01:32:56;;;;;;;0.52;0.38;;;21.00;52.60;;;;;;5053721;28;20050;-60
2023/10/31 01:35:22;;;;;;;0.88;0.40;;;21.00;52.60;;;;;;5069284;28;20049;-58
2023/10/31 01:37:48;;;;;;;0.75;0.40;;;21.00;52.60;;;;;;5049863;28;20021;-59
2023/10/31 01:40:14;;;;;;;0.70;0.50;;;21.00;53.20;;;;;;5076445;28;20035;-55
2023/10/31 01:42:40;;;;;;;1.13;0.60;;;21.00;52.50;;;;;;5068717;28;20040;-56
2023/10/31 01:45:07;;;;;;;1.00;0.57;;;20.90;52.50;;;;;;5075349;28;20048;-54
2023/10/31 01:47:33;;;;;;;1.77;0.70;;;21.00;52.50;;;;;;5064064;28;20025;-57
2023/10/31 01:50:00;;;;;;;0.47;0.47;;;20.90;52.50;;;;;;5074458;28;20447;-57
2023/10/31 01:52:26;;;;;;;0.75;0.40;;;20.90;52.50;;;;;;5067401;28;20020;-51
2023/10/31 01:54:52;;;;;;;0.70;0.30;;;20.90;52.50;;;;;;5067630;28;20452;-53
2023/10/31 01:57:20;;;;;;;1.08;0.68;;;20.90;52.50;;;;;;5075710;28;20482;-54
2023/10/31 01:59:47;;;;;;;1.55;0.65;;;20.90;52.50;;;;;;5053302;28;20458;-56
2023/10/31 02:02:13;;;;;;;1.05;0.50;;;20.90;52.50;;;;;;5075140;28;20029;-53
2023/10/31 02:04:39;;;;;;;0.95;0.32;;;20.90;52.50;;;;;;5070388;28;20036;-59
2023/10/31 02:07:05;;;;;;;0.90;0.57;;;20.90;52.50;;;;;;5054414;28;20028;-55
2023/10/31 02:09:32;;;;;;;1.73;0.57;;;20.90;52.50;;;;;;5055468;28;20101;-57
2023/10/31 02:11:58;;;;;;;1.33;0.50;;;20.90;52.50;;;;;;5069412;28;20058;-55
2023/10/31 02:14:24;;;;;;;1.05;0.68;;;20.90;52.50;;;;;;5073517;28;20119;-57
2023/10/31 02:16:51;;;;;;;1.08;0.60;;;20.90;52.50;;;;;;5078282;28;20112;-55
2023/10/31 02:19:20;;;;;;;2.03;0.73;;;20.90;52.50;;;;;;5071020;28;20463;-57
2023/10/31 02:21:46;;;;;;;1.02;0.60;;;20.90;52.50;;;;;;5078341;28;20477;-55
2023/10/31 02:24:12;;;;;;;1.05;0.65;;;20.80;52.50;;;;;;5067180;28;20020;-56
2023/10/31 02:26:38;;;;;;;1.55;0.70;;;20.90;52.50;;;;;;5074781;28;20029;-55
2023/10/31 02:29:04;;;;;;;0.52;0.50;;;20.90;52.50;;;;;;5055234;28;20123;-51
2023/10/31 02:31:30;;;;;;;0.82;0.60;;;20.90;52.50;;;;;;5069442;28;20035;-54
2023/10/31 02:33:56;;;;;;;0.95;0.70;;;20.80;52.40;;;;;;5069862;28;20048;-58
2023/10/31 02:36:23;;;;;;;1.05;0.75;;;20.90;52.50;;;;;;5071886;28;20416;-55
2023/10/31 02:38:49;;;;;;;1.00;0.68;;;20.80;52.50;;;;;;5069537;28;20047;-58
2023/10/31 02:41:15;;;;;;;1.55;0.68;;;20.80;52.50;;;;;;5076514;28;20179;-56
2023/10/31 02:43:41;;;;;;;0.93;0.50;;;20.80;52.50;;;;;;5070050;28;20313;-56
2023/10/31 02:46:07;;;;;;;1.05;0.65;;;20.80;52.50;;;;;;5063065;28;20024;-52
2023/10/31 02:48:39;;;;;;;1.17;0.70;;;20.80;52.50;;;;;;5072263;28;20032;-57
2023/10/31 02:51:10;;;;;;;1.13;0.52;;;20.80;52.50;;;;;;5052674;28;20032;-51
2023/10/31 02:53:36;;;;;;;1.77;0.50;;;20.80;52.50;;;;;;5069819;28;20020;-57
2023/10/31 02:56:02;;;;;;;0.95;0.38;;;20.80;52.50;;;;;;5051405;28;20032;-55
2023/10/31 02:58:28;;;;;;;0.80;0.50;;;20.80;52.50;;;;;;5073481;28;20428;-54
2023/10/31 03:00:54;;;;;;;1.25;0.70;;;20.80;52.50;;;;;;5071391;28;20161;-54
2023/10/31 03:03:20;;;;;;;1.23;0.90;;;20.80;52.50;;;;;;5067211;28;20056;-57
2023/10/31 03:05:46;;;;;;;0.82;0.60;;;20.80;52.50;;;;;;5056202;28;20464;-51
2023/10/31 03:08:12;;;;;;;1.40;0.70;;;20.80;52.50;;;;;;5073247;28;20415;-54
2023/10/31 03:10:39;;;;;;;0.68;0.50;;;20.80;52.50;;;;;;5059329;28;20032;-56
2023/10/31 03:13:05;;;;;;;0.90;0.73;;;20.80;52.50;;;;;;5070754;28;20429;-57
2023/10/31 03:15:31;;;;;;;0.52;0.52;;;20.70;52.50;;;;;;5068452;28;20166;-57
2023/10/31 03:17:57;;;;;;;1.10;0.50;;;20.70;52.50;;;;;;5073248;28;20037;-57
2023/10/31 03:20:23;;;;;;;1.80;0.90;;;20.80;52.50;;;;;;5078065;28;20458;-56
2023/10/31 03:22:49;;;;;;;0.93;0.70;;;20.80;52.50;;;;;;5062681;28;20141;-57
2023/10/31 03:25:15;;;;;;;0.70;0.50;;;20.80;52.50;;;;;;5046048;28;20029;-53
2023/10/31 03:27:40;;;;;;;0.77;0.50;;;20.70;52.50;;;;;;5072991;28;20074;-55
2023/10/31 03:30:07;;;;;;;1.83;0.80;;;20.70;52.50;;;;;;5067464;28;20424;-55
2023/10/31 03:32:33;;;;;;;0.80;0.55;;;20.70;52.50;;;;;;5068270;28;20036;-54
2023/10/31 03:34:59;;;;;;;0.95;0.50;;;20.70;52.50;;;;;;5072873;28;20434;-57
2023/10/31 03:37:24;;;;;;;0.90;0.75;;;20.70;52.50;;;;;;5071656;28;20545;-53
2023/10/31 03:39:50;;;;;;;1.55;0.70;;;20.70;52.50;;;;;;5070427;28;20033;-53
2023/10/31 03:42:16;;;;;;;0.50;0.50;;;20.70;52.50;;;;;;5072260;28;20119;-56
2023/10/31 03:44:42;;;;;;;0.90;0.60;;;20.70;52.50;;;;;;5071291;28;20124;-56
2023/10/31 03:47:08;;;;;;;1.20;0.70;;;20.70;52.50;;;;;;5073517;28;20336;-55
2023/10/31 03:49:39;;;;;;;1.13;0.63;;;20.70;52.50;;;;;;5042876;28;20475;-56
2023/10/31 03:52:05;;;;;;;0.90;0.60;;;20.70;52.50;;;;;;5072589;28;20032;-55
2023/10/31 03:54:31;;;;;;;1.00;0.47;;;20.70;52.50;;;;;;5072492;28;20107;-56
2023/10/31 03:56:57;;;;;;;1.33;0.70;;;20.70;52.50;;;;;;5072345;28;20119;-53
2023/10/31 03:59:22;;;;;;;1.65;0.80;;;20.70;52.50;;;;;;5071402;28;20035;-56
2023/10/31 04:01:48;;;;;;;0.68;0.60;;;20.60;52.50;;;;;;5053446;28;20049;-56
2023/10/31 04:04:14;;;;;;;1.70;0.47;;;20.60;52.50;;;;;;5069432;28;20103;-55
2023/10/31 04:06:41;;;;;;;1.00;0.50;;;20.70;52.50;;;;;;5071601;28;20314;-57
2023/10/31 04:09:07;;;;;;;0.60;0.47;;;20.70;52.50;;;;;;5072341;28;20440;-57
2023/10/31 04:11:33;;;;;;;0.88;0.70;;;20.60;52.40;;;;;;5071564;28;20036;-53
2023/10/31 04:13:59;;;;;;;1.05;0.50;;;20.60;52.50;;;;;;5070754;28;20047;-58
2023/10/31 04:16:25;;;;;;;0.63;0.47;;;20.60;52.40;;;;;;5073680;28;20033;-54
2023/10/31 04:18:51;;;;;;;0.75;0.50;;;20.70;52.50;;;;;;5055533;28;20035;-58
2023/10/31 04:21:17;;;;;;;0.70;0.40;;;20.60;52.40;;;;;;5071383;28;20036;-55
2023/10/31 04:23:43;;;;;;;0.50;0.50;;;20.60;52.40;;;;;;5071828;28;20493;-53
2023/10/31 04:26:09;;;;;;;0.40;0.40;;;20.70;52.50;;;;;;5074100;28;20081;-55
2023/10/31 04:28:35;;;;;;;0.60;0.45;;;20.60;52.40;;;;;;5071567;28;20032;-56
2023/10/31 04:31:01;;;;;;;0.55;0.50;;;20.60;52.30;;;;;;5071101;28;20432;-53
2023/10/31 04:33:26;;;;;;;0.60;0.40;;;20.60;52.30;;;;;;5070966;28;20498;-58
2023/10/31 04:35:52;;;;;;;0.60;0.50;;;20.60;52.40;;;;;;5068885;28;20089;-56
2023/10/31 04:38:18;;;;;;;0.70;0.50;;;20.60;52.30;;;;;;5071652;28;20347;-54
2023/10/31 04:40:44;;;;;;;0.90;0.60;;;20.60;52.30;;;;;;5070769;28;20312;-56
2023/10/31 04:43:10;;;;;;;0.65;0.47;;;20.60;52.30;;;;;;5070452;28;20032;-53
2023/10/31 04:45:35;;;;;;;0.70;0.50;;;20.60;52.30;;;;;;5070921;28;20031;-55
2023/10/31 04:48:01;;;;;;;0.85;0.40;;;20.60;52.30;;;;;;5071015;28;20071;-56
2023/10/31 04:50:27;;;;;;;0.55;0.40;;;20.60;52.30;;;;;;5070693;28;20450;-56
2023/10/31 04:52:53;;;;;;;0.77;0.47;;;20.60;52.30;;;;;;5053776;28;20151;-58
2023/10/31 04:55:19;;;;;;;0.35;0.30;;;20.60;52.30;;;;;;5073981;28;20020;-54
2023/10/31 04:57:45;;;;;;;1.13;0.40;;;20.60;52.30;;;;;;5070288;28;20035;-54
2023/10/31 05:00:11;;;;;;;0.65;0.40;;;20.60;52.30;;;;;;5070095;28;20115;-56
2023/10/31 05:02:37;;;;;;;0.50;0.28;;;20.60;52.30;;;;;;5071007;28;20047;-56
2023/10/31 05:05:03;;;;;;;0.70;0.40;;;20.60;52.30;;;;;;5072996;28;20033;-55
2023/10/31 05:07:29;;;;;;;1.25;0.35;;;20.60;52.30;;;;;;5071275;28;20052;-56
2023/10/31 05:09:56;;;;;;;0.88;0.45;;;20.60;52.30;;;;;;5070840;28;20125;-58
2023/10/31 05:12:22;;;;;;;0.28;0.20;;;20.60;52.30;;;;;;5071081;28;20025;-56
2023/10/31 05:14:47;;;;;;;1.05;0.50;;;20.50;52.20;;;;;;5055441;28;20043;-57
2023/10/31 05:17:13;;;;;;;0.28;0.20;;;20.50;52.20;;;;;;5070458;28;20325;-54
2023/10/31 05:19:39;;;;;;;0.60;0.30;;;20.50;52.20;;;;;;5072841;28;20025;-54
2023/10/31 05:22:05;;;;;;;0.50;0.32;;;20.60;52.20;;;;;;5070288;28;20029;-54
2023/10/31 05:24:32;;;;;;;1.10;0.50;;;20.60;52.20;;;;;;5073552;28;20106;-55
2023/10/31 05:26:58;;;;;;;0.63;0.40;;;20.50;52.20;;;;;;5070319;28;20033;-55
2023/10/31 05:29:24;;;;;;;0.60;0.30;;;20.50;52.20;;;;;;5069915;28;20095;-56
2023/10/31 05:31:50;;;;;;;1.17;0.40;;;20.50;52.10;;;;;;5070884;28;20107;-57
2023/10/31 05:34:15;;;;;;;0.90;0.57;;;20.50;52.10;;;;;;5078321;28;20037;-57
2023/10/31 05:36:41;;;;;;;0.52;0.30;;;20.50;52.10;;;;;;5074715;28;21500;-55
2023/10/31 05:39:08;;;;;;;0.28;0.25;;;20.50;52.30;;;;;;5073540;28;20043;-55
2023/10/31 05:41:35;;;;;;;0.50;0.50;;;20.50;52.20;;;;;;5075021;28;20036;-57
2023/10/31 05:44:01;;;;;;;0.40;0.40;;;20.50;52.20;;;;;;5074317;28;20029;-57
2023/10/31 05:46:27;;;;;;;0.70;0.30;;;20.50;52.20;;;;;;5074376;28;20482;-57
2023/10/31 05:48:53;;;;;;;0.40;0.40;;;20.50;52.20;;;;;;5073706;28;20025;-56
2023/10/31 05:51:19;;;;;;;1.27;0.45;;;20.50;52.20;;;;;;5073034;28;20020;-55
2023/10/31 05:53:47;;;;;;;1.45;0.50;;;20.50;52.20;;;;;;5075658;28;20106;-57
2023/10/31 05:56:14;;;;;;;0.63;0.52;;;20.50;52.40;;;;;;5073488;28;20979;-58
2023/10/31 05:58:41;;;;;;;0.75;0.60;;;20.50;52.20;;;;;;5075571;28;20028;-55
2023/10/31 06:01:08;;;;;;;0.77;0.40;;;20.50;52.20;;;;;;5073889;28;20041;-55
2023/10/31 06:03:34;;;;;;;0.30;0.30;;;20.50;52.20;;;;;;5077019;28;20024;-57
2023/10/31 06:06:00;;;;;;;0.73;0.50;;;20.50;52.20;;;;;;5073484;28;20040;-58
2023/10/31 06:08:28;;;;;;;0.82;0.30;;;20.50;52.20;;;;;;5074177;28;20033;-53
2023/10/31 06:10:56;;;;;;;1.00;0.65;;;20.50;52.20;;;;;;5057059;28;20037;-52
2023/10/31 06:13:22;;;;;;;0.30;0.30;;;20.50;52.20;;;;;;5074119;28;21094;-57
2023/10/31 06:15:48;;;;;;;0.93;0.40;;;20.40;52.10;;;;;;5073113;28;20063;-56
2023/10/31 06:18:14;;;;;;;0.57;0.35;;;20.40;52.10;;;;;;5073690;28;20447;-56
2023/10/31 06:20:39;;;;;;;0.20;0.20;;;20.50;52.20;;;;;;5075421;28;20020;-53
2023/10/31 06:23:05;;;;;;;0.52;0.40;;;20.50;52.20;;;;;;5077069;28;20051;-54
2023/10/31 06:25:31;;;;;;;0.50;0.35;;;20.50;52.20;;;;;;5072257;28;20067;-54
2023/10/31 06:27:57;;;;;;;0.82;0.40;;;20.50;52.20;;;;;;5056152;28;20093;-58
2023/10/31 06:30:25;;;;;;;0.57;0.40;;;20.50;52.20;;;;;;5075779;28;20040;-53
2023/10/31 06:32:54;;;;;;;0.55;0.28;;;20.40;52.10;;;;;;5056563;28;20087;-58
2023/10/31 06:35:20;;;;;;;1.05;0.20;;;20.50;52.10;;;;;;5072517;28;20106;-55
2023/10/31 06:37:46;;;;;;;1.55;0.30;;;20.40;52.00;;;;;;5073505;28;20363;-53
2023/10/31 06:40:12;;;;;;;0.20;0.20;;;20.40;52.00;;;;;;5077248;28;20025;-56
2023/10/31 06:42:38;;;;;;;0.57;0.30;;;20.40;52.00;;;;;;5073092;28;20479;-54
2023/10/31 06:45:04;;;;;;;0.28;0.25;;;20.40;52.00;;;;;;5072033;28;20116;-55
2023/10/31 06:47:30;;;;;;;0.77;0.30;;;20.40;52.00;;;;;;5076594;28;20021;-52
2023/10/31 06:49:56;;;;;;;0.38;0.30;;;20.40;52.00;;;;;;5074513;28;20021;-56
2023/10/31 06:52:22;;;;;;;0.30;0.30;;;20.40;51.90;;;;;;5073594;28;20028;-57
2023/10/31 06:54:48;;;;;;;0.80;0.22;;;20.40;51.90;;;;;;5072138;28;20028;-56
2023/10/31 06:57:15;;;;;;;0.22;0.15;;;20.40;51.90;;;;;;5073967;28;20029;-57
2023/10/31 06:59:41;;;;;;;0.68;0.30;;;20.40;51.90;;;;;;5074184;28;20025;-57
2023/10/31 07:02:08;;;;;;;1.30;0.30;;;20.40;51.90;;;;;;5075907;28;20047;-54
2023/10/31 07:04:34;;;;;;;0.65;0.30;;;20.40;51.90;;;;;;5071345;28;20031;-56
2023/10/31 07:07:00;;;;;;;0.63;0.28;;;20.40;51.90;;;;;;5074089;28;20060;-57
2023/10/31 07:09:26;;;;;;;0.47;0.22;;;20.40;52.00;;;;;;5074779;28;20052;-57
2023/10/31 07:11:53;;;;;;;1.63;0.32;;;20.40;52.00;;;;;;5072419;28;20048;-59
2023/10/31 07:14:19;;;;;;;0.90;0.40;;;20.40;52.00;;;;;;5055335;28;20055;-55
2023/10/31 07:16:45;;;;;;;1.33;0.57;;;20.40;52.00;;;;;;5072878;28;20462;-57
2023/10/31 07:19:11;;;;;;;2.97;0.47;;;20.40;52.00;;;;;;5071648;28;20106;-55
2023/10/31 07:21:37;;;;;;;1.33;0.45;;;20.40;52.00;;;;;;5075062;28;20032;-57
2023/10/31 07:24:03;;;;;;;1.10;0.50;;;20.40;52.00;;;;;;5074311;28;20020;-58
2023/10/31 07:26:29;;;;;;;0.57;0.40;;;20.40;52.00;;;;;;5076186;28;20103;-56
2023/10/31 07:28:55;;;;;;;0.55;0.40;;;20.40;52.00;;;;;;5076021;28;20428;-55
2023/10/31 07:31:21;;;;;;;1.13;0.60;;;20.40;52.00;;;;;;5083121;28;20118;-54
2023/10/31 07:33:47;;;;;;;0.68;0.57;;;20.40;52.00;;;;;;5073185;28;20151;-57
2023/10/31 07:36:13;;;;;;;0.40;0.40;;;20.40;52.00;;;;;;5074668;28;20103;-57
2023/10/31 07:38:39;;;;;;;1.45;0.68;;;20.40;52.10;;;;;;5048928;28;20016;-59
2023/10/31 07:41:05;;;;;;;1.00;0.60;;;20.40;52.10;;;;;;5071969;28;20031;-55
2023/10/31 07:43:31;;;;;;;1.10;0.70;;;20.40;52.20;;;;;;5070362;28;20040;-56
2023/10/31 07:45:57;;;;;;;1.15;0.60;;;20.40;52.20;;;;;;5059123;28;20359;-58
2023/10/31 07:48:23;;;;;;;1.42;0.80;;;20.40;52.20;;;;;;5072762;28;20036;-59
2023/10/31 07:50:49;;;;;;;1.67;0.75;;;20.50;52.30;;;;;;5071333;28;20028;-59
2023/10/31 07:53:15;;;;;;;0.80;0.60;;;20.50;52.30;;;;;;5074818;28;20020;-59
2023/10/31 07:55:41;;;;;;;1.30;0.77;;;20.50;52.30;;;;;;5051411;28;20040;-58
2023/10/31 07:58:06;;;;;;;3.33;0.55;;;20.50;52.30;;;;;;5067967;28;20024;-53
2023/10/31 08:00:34;;;;;;;2.22;0.98;;;20.50;52.30;;;;;;5067529;28;20056;-55
2023/10/31 08:03:00;;;;;;;1.65;0.98;;;20.40;52.20;;;;;;5072559;28;20355;-57
2023/10/31 08:05:26;;;;;;;0.90;0.65;;;20.40;52.30;;;;;;5073005;28;20100;-58
2023/10/31 08:07:52;;;;;;;0.80;0.60;;;20.50;52.30;;;;;;5075343;28;20044;-56
2023/10/31 08:10:18;;;;;;;2.08;1.10;;;20.50;52.30;;;;;;5076204;28;20614;-53
2023/10/31 08:12:44;;;;;;;2.13;0.80;;;20.40;52.30;;;;;;5072263;28;20028;-56
2023/10/31 08:15:10;;;;;;;1.95;1.10;;;20.50;52.30;;;;;;5072324;28;20031;-58
2023/10/31 08:17:36;;;;;;;1.30;0.90;;;20.50;52.30;;;;;;5066149;28;20465;-58
2023/10/31 08:20:06;;;;;;;2.78;0.85;;;20.50;52.30;;;;;;5094865;28;20032;-60
2023/10/31 08:22:31;;;;;;;1.65;0.80;;;20.50;52.30;;;;;;5079158;28;20536;-57
2023/10/31 08:24:57;;;;;;;1.23;0.98;;;20.50;52.30;;;;;;5071250;28;20024;-54
2023/10/31 08:27:23;;;;;;;1.40;0.90;;;20.50;52.30;;;;;;5071528;28;20020;-58
2023/10/31 08:29:49;;;;;;;1.83;0.70;;;20.40;52.20;;;;;;5070506;28;20071;-56
2023/10/31 08:32:16;;;;;;;2.40;0.90;;;20.50;52.30;;;;;;5073094;28;20107;-60
2023/10/31 08:34:41;;;;;;;1.27;0.77;;;20.50;52.30;;;;;;5070734;28;20511;-59
2023/10/31 08:37:07;;;;;;;1.65;0.88;;;20.50;52.20;;;;;;5070777;28;20036;-56
2023/10/31 08:39:33;;;;;;;1.48;0.90;;;20.50;52.20;;;;;;5071751;28;20109;-58
2023/10/31 08:41:59;;;;;;;1.98;1.00;;;20.50;52.20;;;;;;5070770;28;20420;-60
2023/10/31 08:44:25;;;;;;;1.33;0.80;;;20.50;52.20;;;;;;5070535;28;20028;-57
2023/10/31 08:46:51;;;;;;;0.88;0.70;;;20.50;52.30;;;;;;5070808;28;20085;-56
2023/10/31 08:49:17;;;;;;;1.35;0.80;;;20.50;52.20;;;;;;5089404;28;20392;-62
2023/10/31 08:51:44;;;;;;;0.65;0.60;;;20.50;52.20;;;;;;5078704;28;20016;-58
2023/10/31 08:54:11;;;;;;;0.95;0.80;;;20.50;52.20;;;;;;5070993;28;20116;-55
2023/10/31 08:56:36;;;;;;;1.05;0.50;;;20.50;52.20;;;;;;5068323;28;20528;-58
2023/10/31 08:59:03;;;;;;;0.98;0.60;;;20.50;52.20;;;;;;5067449;28;20032;-58
2023/10/31 09:01:29;;;;;;;1.02;0.40;;;20.50;52.20;;;;;;5068495;28;21168;-54
2023/10/31 09:03:55;;;;;;;0.90;0.60;;;20.50;52.30;;;;;;5050918;28;20043;-57
2023/10/31 09:06:21;;;;;;;2.20;0.65;;;20.50;52.20;;;;;;5067743;28;20505;-55
2023/10/31 09:08:47;;;;;;;2.35;0.75;;;20.50;52.20;;;;;;5034756;28;20056;-57
2023/10/31 09:11:13;;;;;;;1.23;0.63;;;20.50;52.30;;;;;;5074271;28;20036;-56
2023/10/31 09:13:42;;;;;;;4.05;0.70;;;20.50;52.30;;;;;;5074339;28;20352;-53
2023/10/31 09:16:08;;;;;;;3.35;0.70;;;20.50;52.30;;;;;;5077567;28;20013;-57
2023/10/31 09:18:34;;;;;;;3.42;0.70;;;20.50;52.30;;;;;;5084908;28;20028;-55
2023/10/31 09:21:00;;;;;;;1.38;0.55;;;20.50;52.30;;;;;;5094556;28;20050;-58
2023/10/31 09:23:26;;;;;;;2.28;1.00;;;20.50;52.30;;;;;;5094396;28;20439;-56
2023/10/31 09:25:52;;;;;;;1.75;0.63;;;20.50;52.30;;;;;;5076368;28;20036;-58
2023/10/31 09:28:18;;;;;;;1.23;0.95;;;20.50;52.30;;;;;;5094271;28;20059;-58
2023/10/31 09:30:44;;;;;;;2.38;0.50;;;20.50;52.40;;;;;;5093792;28;20028;-56
2023/10/31 09:33:10;;;;;;;0.80;0.52;;;20.60;52.50;;;;;;5093231;28;20098;-55
2023/10/31 09:35:36;;;;;;;1.05;0.52;;;20.50;52.40;;;;;;5076451;28;20028;-57
2023/10/31 09:38:02;;;;;;;0.70;0.40;;;20.60;52.40;;;;;;5094396;28;20123;-53
2023/10/31 09:40:28;;;;;;;1.35;0.60;;;20.60;52.40;;;;;;5094193;28;20529;-58
2023/10/31 09:42:54;;;;;;;1.45;0.50;;;20.50;52.40;;;;;;5090213;28;20127;-58
2023/10/31 09:45:20;;;;;;;1.15;0.70;;;20.50;52.30;;;;;;5094292;28;20047;-59
2023/10/31 09:47:46;;;;;;;0.75;0.47;;;20.60;52.40;;;;;;5094455;28;20040;-57
2023/10/31 09:50:12;;;;;;;2.05;0.60;;;20.60;52.40;;;;;;5094194;28;20063;-59
2023/10/31 09:52:38;;;;;;;0.93;0.50;;;20.60;52.40;;;;;;5094772;28;20028;-57
2023/10/31 09:55:05;;;;;;;1.38;0.75;;;20.60;52.40;;;;;;5094241;28;20031;-57
2023/10/31 09:57:32;;;;;;;1.30;0.60;;;20.60;52.50;;;;;;5071474;28;20029;-57
2023/10/31 09:59:58;;;;;;;0.82;0.55;;;20.60;52.40;;;;;;5053771;28;20064;-58
2023/10/31 10:02:23;;;;;;;1.88;0.68;;;20.60;52.40;;;;;;5053387;28;20481;-57
2023/10/31 10:04:50;;;;;;;0.75;0.50;;;20.60;52.40;;;;;;5053773;28;20029;-58
2023/10/31 10:07:17;;;;;;;1.00;0.50;;;20.60;52.40;;;;;;5065250;28;20052;-56
2023/10/31 10:09:45;;;;;;;0.90;0.45;;;20.60;52.40;;;;;;5094048;28;20371;-57
2023/10/31 10:12:16;;;;;;;1.25;0.50;;;20.60;52.40;;;;;;5093963;28;20128;-58
2023/10/31 10:14:44;;;;;;;1.20;0.55;;;20.60;52.40;;;;;;5076093;28;20035;-56
2023/10/31 10:17:24;;;;;;;2.20;0.60;;;20.60;52.40;;;;;;5090392;28;20504;-55
2023/10/31 10:20:10;;;;;;;1.52;0.50;;;20.60;52.40;;;;;;5057134;28;20033;-54
2023/10/31 10:22:38;;;;;;;1.83;0.70;;;20.60;52.40;;;;;;5057152;28;20036;-53
2023/10/31 10:25:08;;;;;;;2.10;0.70;;;20.70;52.50;;;;;;5056917;28;20111;-56
2023/10/31 10:27:35;;;;;;;1.70;0.50;;;20.70;52.50;;;;;;5057091;28;20090;-56
2023/10/31 10:30:01;;;;;;;0.60;0.50;;;20.60;52.50;;;;;;5056998;28;20116;-59
2023/10/31 10:32:27;;;;;;;1.13;0.60;;;20.60;52.40;;;;;;5065561;28;20063;-55
2023/10/31 10:34:54;;;;;;;1.70;0.70;;;20.70;52.50;;;;;;5094764;28;20139;-53
2023/10/31 10:37:20;;;;;;;1.40;0.52;;;20.60;52.40;;;;;;5097622;28;20032;-57
2023/10/31 10:39:55;;;;;;;1.20;0.43;;;20.70;52.50;;;;;;5097406;28;20035;-60
2023/10/31 10:42:36;;;;;;;0.98;0.60;;;20.60;52.40;;;;;;5097401;28;20036;-57
2023/10/31 10:45:04;;;;;;;1.98;0.50;;;20.60;52.40;;;;;;5097242;28;20028;-55
2023/10/31 10:47:32;;;;;;;2.42;0.82;;;20.60;52.40;;;;;;5097187;28;20113;-59
2023/10/31 10:50:01;;;;;;;1.20;0.50;;;20.70;52.50;;;;;;5095890;28;20032;-58
2023/10/31 10:52:38;;;;;;;0.60;0.40;;;20.70;52.50;;;;;;5096898;28;20141;-55
2023/10/31 10:55:11;;;;;;;1.27;0.50;;;20.70;52.40;;;;;;5096664;28;20097;-58
2023/10/31 10:57:45;;;;;;;0.90;0.50;;;20.70;52.40;;;;;;5096873;28;20039;-57
2023/10/31 11:00:12;;;;;;;1.35;0.50;;;20.70;52.30;;;;;;5072676;28;20539;-56
2023/10/31 11:02:43;;;;;;;1.13;0.50;;;20.70;52.30;;;;;;5094246;28;20043;-59
2023/10/31 11:05:09;;;;;;;1.90;0.40;;;20.70;52.30;;;;;;5096696;28;20028;-53
2023/10/31 11:07:38;;;;;;;0.82;0.45;;;20.70;52.30;;;;;;5092436;28;20089;-55
2023/10/31 11:10:05;;;;;;;0.90;0.50;;;20.70;52.20;;;;;;5096340;28;20094;-56
2023/10/31 11:12:35;;;;;;;0.98;0.45;;;20.70;52.20;;;;;;5096439;28;20036;-55
2023/10/31 11:15:02;;;;;;;1.30;0.45;;;20.70;52.20;;;;;;5096551;28;20047;-56
2023/10/31 11:17:34;;;;;;;1.27;0.75;;;20.70;52.10;;;;;;5067119;28;20120;-59
2023/10/31 11:20:00;;;;;;;1.27;0.65;;;20.70;52.10;;;;;;5089628;28;20038;-56
2023/10/31 11:22:36;;;;;;;0.85;0.40;;;20.70;52.00;;;;;;5096179;28;20086;-54
2023/10/31 11:25:04;;;;;;;1.58;0.60;;;20.70;52.00;;;;;;5079059;28;20054;-57
2023/10/31 11:27:35;;;;;;;1.67;0.60;;;20.80;52.10;;;;;;5085453;28;20039;-59
2023/10/31 11:30:04;;;;;;;0.88;0.70;;;20.70;52.20;;;;;;5066032;28;20570;-57
2023/10/31 11:32:32;;;;;;;1.52;0.65;;;20.80;52.30;;;;;;5077362;28;20051;-61
2023/10/31 11:34:59;;;;;;;1.73;0.77;;;20.80;52.40;;;;;;5079692;28;20048;-59
2023/10/31 11:37:27;;;;;;;1.35;0.80;;;20.80;52.50;;;;;;5070333;28;20027;-57
2023/10/31 11:40:20;;;;;;;1.23;0.70;;;20.80;52.60;;;;;;5073186;28;20820;-57
2023/10/31 11:42:56;;;;;;;1.17;0.55;;;20.90;52.70;;;;;;5078948;28;20036;-61
2023/10/31 11:45:48;;;;;;;1.08;0.70;;;20.90;52.70;;;;;;5068353;28;20387;-57
2023/10/31 11:48:15;;;;;;;2.08;1.08;;;21.00;52.70;;;;;;5071382;28;20101;-54
2023/10/31 11:50:41;;;;;;;2.35;1.10;;;21.00;52.70;;;;;;5051647;28;20331;-57
2023/10/31 11:53:16;;;;;;;4.05;1.02;;;21.10;52.70;;;;;;5071447;28;20028;-56
2023/10/31 11:55:47;;;;;;;1.60;1.02;;;21.10;52.50;;;;;;5069765;28;20032;-57
2023/10/31 11:58:15;;;;;;;2.30;1.25;;;21.20;52.50;;;;;;5076822;28;20034;-57
2023/10/31 12:00:41;;;;;;;2.22;1.10;;;21.20;52.40;;;;;;5069261;28;20028;-55
2023/10/31 12:03:07;;;;;;;3.67;1.40;;;21.20;52.30;;;;;;5075702;28;20047;-58
2023/10/31 12:05:33;;;;;;;2.08;1.20;;;21.30;52.20;;;;;;5075573;28;20031;-57
2023/10/31 12:07:59;;;;;;;2.17;1.40;;;21.30;52.20;;;;;;5072332;28;20025;-57
2023/10/31 12:10:29;;;;;;;2.28;1.38;;;21.40;52.10;;;;;;5068810;28;20464;-52
2023/10/31 12:12:56;;;;;;;3.13;1.50;;;21.40;52.00;;;;;;5072072;28;20126;-59
2023/10/31 12:15:22;;;;;;;1.80;1.35;;;21.40;51.90;;;;;;5072725;28;20063;-56
2023/10/31 12:17:49;;;;;;;2.63;1.48;;;21.50;51.90;;;;;;5078334;28;20457;-58
2023/10/31 12:20:16;;;;;;;2.72;1.83;;;21.50;51.80;;;;;;5079190;28;20403;-58
2023/10/31 12:22:42;;;;;;;2.50;1.77;;;21.50;51.70;;;;;;5066730;28;20080;-56
2023/10/31 12:25:10;;;;;;;2.00;1.60;;;21.60;51.70;;;;;;5067808;28;20024;-55
2023/10/31 12:28:02;;;;;;;2.90;1.90;;;21.60;51.60;;;;;;5073538;28;20576;-54
2023/10/31 12:30:27;;;;;;;4.15;1.75;;;21.70;51.50;;;;;;5062993;28;20041;-59
2023/10/31 12:32:58;;;;;;;3.78;1.98;;;21.70;51.40;;;;;;5074955;28;20086;-54
2023/10/31 12:35:26;;;;;;;2.30;1.95;;;21.80;51.30;;;;;;5054716;28;20475;-53
2023/10/31 12:37:52;;;;;;;2.70;1.75;;;21.80;51.30;;;;;;5069584;28;20081;-55
2023/10/31 12:40:20;;;;;;;3.75;1.90;;;21.80;51.20;;;;;;5069598;28;20055;-55
2023/10/31 12:42:47;;;;;;;2.97;1.85;;;21.80;51.20;;;;;;5049266;28;20040;-53
2023/10/31 12:45:14;;;;;;;3.83;2.28;;;21.90;51.20;;;;;;5072083;28;20040;-54